Time;durP1;ratioP1;P1;durP2;ratioP2;P2;SDS_P1;SDS_P2;PMS_P1;PMS_P2;Temp;Humidity;BMP_temperature;BMP_pressure;BME280_temperature;BME280_humidity;BME280_pressure;Samples;Min_cycle;Max_cycle;Signal;HPM_P1;HPM_P2
2023/06/14 00:08:44;;;;;;;2.58;1.45;;;;;;;;;;20996059;28;20090;-64
2023/06/14 00:18:46;;;;;;;2.25;1.50;;;;;;;;;;20995730;28;20041;-65
2023/06/14 00:28:47;;;;;;;1.85;1.00;;;;;;;;;;20995063;28;20049;-65
2023/06/14 00:38:48;;;;;;;2.13;1.10;;;;;;;;;;20995184;28;20060;-64
2023/06/14 00:48:49;;;;;;;2.63;0.70;;;;;;;;;;20995640;28;20044;-64
2023/06/14 00:58:51;;;;;;;5.80;1.40;;;;;;;;;;21003082;28;20040;-65
2023/06/14 01:08:59;;;;;;;0.90;0.47;;;;;;;;;;21008963;28;20048;-64
2023/06/14 01:19:02;;;;;;;0.80;0.38;;;;;;;;;;21009627;28;20045;-64
2023/06/14 01:29:03;;;;;;;1.17;0.30;;;;;;;;;;21008137;28;20194;-65
2023/06/14 01:39:04;;;;;;;0.85;0.35;;;;;;;;;;21006780;28;20052;-65
2023/06/14 01:49:06;;;;;;;1.95;0.50;;;;;;;;;;21007328;28;20477;-64
2023/06/14 01:59:07;;;;;;;2.15;0.60;;;;;;;;;;21005464;28;20106;-64
2023/06/14 02:09:08;;;;;;;1.48;0.65;;;;;;;;;;21004465;28;20048;-64
2023/06/14 02:19:09;;;;;;;0.70;0.30;;;;;;;;;;21004947;28;20063;-64
2023/06/14 02:29:12;;;;;;;0.60;0.40;;;;;;;;;;21003498;28;20060;-64
2023/06/14 02:39:13;;;;;;;2.15;0.50;;;;;;;;;;21002925;28;20486;-64
2023/06/14 02:49:14;;;;;;;0.68;0.43;;;;;;;;;;21001938;28;20055;-64
2023/06/14 02:59:16;;;;;;;1.38;0.60;;;;;;;;;;21001163;28;20040;-63
2023/06/14 03:09:18;;;;;;;0.80;0.40;;;;;;;;;;20999044;28;20127;-64
2023/06/14 03:19:20;;;;;;;1.60;0.50;;;;;;;;;;20999433;28;20168;-64
2023/06/14 03:29:21;;;;;;;0.98;0.38;;;;;;;;;;20998319;28;20048;-64
2023/06/14 03:39:22;;;;;;;1.05;0.40;;;;;;;;;;20997989;28;20116;-64
2023/06/14 03:49:23;;;;;;;0.75;0.43;;;;;;;;;;20997619;28;20375;-64
2023/06/14 03:59:25;;;;;;;1.02;0.52;;;;;;;;;;20997135;28;20107;-63
2023/06/14 04:09:26;;;;;;;0.90;0.50;;;;;;;;;;20997075;28;20106;-64
2023/06/14 04:19:27;;;;;;;2.30;0.57;;;;;;;;;;20995314;28;20040;-64
2023/06/14 04:29:29;;;;;;;2.15;0.80;;;;;;;;;;20997516;28;20049;-63
2023/06/14 04:39:30;;;;;;;0.75;0.55;;;;;;;;;;21012262;28;20401;-64
2023/06/14 04:49:33;;;;;;;1.52;0.63;;;;;;;;;;21011767;28;20120;-64
2023/06/14 04:59:35;;;;;;;0.85;0.50;;;;;;;;;;21009163;28;20055;-64
2023/06/14 05:09:36;;;;;;;1.70;0.70;;;;;;;;;;21010149;28;20052;-64
2023/06/14 05:19:37;;;;;;;3.13;0.80;;;;;;;;;;21007841;28;20048;-65
2023/06/14 05:29:38;;;;;;;1.40;0.70;;;;;;;;;;21008077;28;20052;-64
2023/06/14 05:39:40;;;;;;;1.60;0.73;;;;;;;;;;21007248;28;20053;-64
2023/06/14 05:49:41;;;;;;;1.48;0.60;;;;;;;;;;21006693;28;20055;-64
2023/06/14 05:59:42;;;;;;;3.35;0.90;;;;;;;;;;21005770;28;20048;-64
2023/06/14 06:09:43;;;;;;;1.92;0.77;;;;;;;;;;21003814;28;20048;-63
2023/06/14 06:19:44;;;;;;;1.40;0.88;;;;;;;;;;21003885;28;20485;-64
2023/06/14 06:29:45;;;;;;;3.03;1.23;;;;;;;;;;21002756;28;20520;-65
2023/06/14 06:39:47;;;;;;;4.93;1.20;;;;;;;;;;21002479;28;20044;-65
2023/06/14 06:49:48;;;;;;;2.10;1.50;;;;;;;;;;21001828;28;20056;-64
2023/06/14 06:59:50;;;;;;;2.17;1.50;;;;;;;;;;20999865;28;20441;-64
2023/06/14 07:09:52;;;;;;;5.15;1.80;;;;;;;;;;20999893;28;20482;-64
2023/06/14 07:19:53;;;;;;;3.25;1.45;;;;;;;;;;20998723;28;20449;-64
2023/06/14 07:29:54;;;;;;;3.42;1.15;;;;;;;;;;20998343;28;20178;-64
2023/06/14 07:39:55;;;;;;;1.73;1.20;;;;;;;;;;20997831;28;20082;-64
2023/06/14 07:49:56;;;;;;;2.75;0.90;;;;;;;;;;20995504;28;20060;-67
2023/06/14 07:59:58;;;;;;;3.65;1.00;;;;;;;;;;20996697;28;20048;-69
2023/06/14 08:09:59;;;;;;;1.98;0.90;;;;;;;;;;20995661;28;20045;-68
2023/06/14 08:20:00;;;;;;;1.27;0.80;;;;;;;;;;20995021;28;20097;-64
2023/06/14 08:30:02;;;;;;;1.80;1.00;;;;;;;;;;20995301;28;20048;-62
2023/06/14 08:40:05;;;;;;;4.03;0.85;;;;;;;;;;20995418;28;20497;-68
2023/06/14 08:50:08;;;;;;;1.55;1.05;;;;;;;;;;20995348;28;20078;-67
2023/06/14 09:00:12;;;;;;;1.13;0.70;;;;;;;;;;20995164;28;20044;-69
2023/06/14 09:10:15;;;;;;;2.95;1.05;;;;;;;;;;20994153;28;20056;-68
2023/06/14 09:20:19;;;;;;;1.55;1.00;;;;;;;;;;21002422;28;20040;-70
2023/06/14 09:30:21;;;;;;;1.58;1.05;;;;;;;;;;21007072;28;20067;-67
2023/06/14 09:40:22;;;;;;;1.85;1.20;;;;;;;;;;21007768;28;20490;-72
2023/06/14 09:50:23;;;;;;;1.77;1.13;;;;;;;;;;21006772;28;20370;-66
2023/06/14 10:00:27;;;;;;;1.58;1.10;;;;;;;;;;21005777;28;20486;-65
2023/06/14 10:10:28;;;;;;;3.60;1.33;;;;;;;;;;21005195;28;20088;-69
2023/06/14 10:20:42;;;;;;;2.63;1.13;;;;;;;;;;21003970;28;20044;-64
2023/06/14 10:31:05;;;;;;;3.72;1.20;;;;;;;;;;21001844;28;20510;-64
2023/06/14 10:41:07;;;;;;;6.47;1.67;;;;;;;;;;21001942;28;20083;-64
2023/06/14 10:51:21;;;;;;;2.05;1.25;;;;;;;;;;21001515;28;20156;-64
2023/06/14 11:01:26;;;;;;;1.45;0.80;;;;;;;;;;20999870;28;20149;-65
2023/06/14 11:11:33;;;;;;;2.33;1.30;;;;;;;;;;20998150;28;20056;-64
2023/06/14 11:21:34;;;;;;;0.80;0.80;;;;;;;;;;20998580;28;20057;-65
2023/06/14 11:31:35;;;;;;;2.67;0.90;;;;;;;;;;20996844;28;20060;-64
2023/06/14 11:41:37;;;;;;;1.27;0.88;;;;;;;;;;20995742;28;20036;-64
2023/06/14 11:51:39;;;;;;;1.10;0.85;;;;;;;;;;20994607;28;20048;-65
2023/06/14 12:01:43;;;;;;;1.83;1.10;;;;;;;;;;20994426;28;20498;-64
2023/06/14 12:11:44;;;;;;;1.77;0.77;;;;;;;;;;20995439;28;20523;-64
2023/06/14 12:21:48;;;;;;;2.25;0.98;;;;;;;;;;20995578;28;20080;-65
2023/06/14 12:31:50;;;;;;;1.70;0.70;;;;;;;;;;20995143;28;20052;-65
2023/06/14 12:41:51;;;;;;;2.20;0.73;;;;;;;;;;20994686;28;20032;-63
2023/06/14 12:51:52;;;;;;;2.72;1.20;;;;;;;;;;20999668;28;20068;-64
2023/06/14 13:01:53;;;;;;;1.42;1.02;;;;;;;;;;21009182;28;20045;-64
2023/06/14 13:11:55;;;;;;;4.32;1.10;;;;;;;;;;21008373;28;20052;-64
2023/06/14 13:21:56;;;;;;;3.55;1.88;;;;;;;;;;21009167;28;20049;-65
2023/06/14 13:31:57;;;;;;;3.17;1.08;;;;;;;;;;21007847;28;20061;-65
2023/06/14 13:41:58;;;;;;;3.38;1.05;;;;;;;;;;21008002;28;20454;-65
2023/06/14 13:51:59;;;;;;;1.52;0.90;;;;;;;;;;21006862;28;20512;-64
2023/06/14 14:02:00;;;;;;;2.80;1.00;;;;;;;;;;21005898;28;20044;-64
2023/06/14 14:12:02;;;;;;;1.98;0.85;;;;;;;;;;21003814;28;20093;-65
2023/06/14 14:22:03;;;;;;;3.00;0.90;;;;;;;;;;21004545;28;20056;-64
2023/06/14 14:32:05;;;;;;;5.22;1.33;;;;;;;;;;21002930;28;20053;-64
2023/06/14 14:42:07;;;;;;;3.00;1.38;;;;;;;;;;21003273;28;20079;-65
2023/06/14 14:52:08;;;;;;;2.90;1.92;;;;;;;;;;21001095;28;20045;-64
2023/06/14 15:02:10;;;;;;;3.20;1.23;;;;;;;;;;21001294;28;20037;-64
2023/06/14 15:12:11;;;;;;;2.78;1.17;;;;;;;;;;20999625;28;20045;-65
2023/06/14 15:22:12;;;;;;;1.10;0.80;;;;;;;;;;20999112;28;20387;-65
2023/06/14 15:32:14;;;;;;;2.17;0.95;;;;;;;;;;20998210;28;20048;-64
2023/06/14 15:42:15;;;;;;;2.60;1.00;;;;;;;;;;20998435;28;20402;-65
2023/06/14 15:52:16;;;;;;;2.30;1.05;;;;;;;;;;20997908;28;20052;-64
2023/06/14 16:02:17;;;;;;;1.30;0.98;;;;;;;;;;20997707;28;20521;-68
2023/06/14 16:12:21;;;;;;;1.40;1.00;;;;;;;;;;20995519;28;20049;-69
2023/06/14 16:22:22;;;;;;;2.38;1.42;;;;;;;;;;20996147;28;20049;-65
2023/06/14 16:32:23;;;;;;;1.95;1.33;;;;;;;;;;21007855;28;20091;-68
2023/06/14 16:42:24;;;;;;;3.03;1.40;;;;;;;;;;21011725;28;20040;-63
2023/06/14 16:52:25;;;;;;;3.63;1.50;;;;;;;;;;21009768;28;20080;-63
2023/06/14 17:02:26;;;;;;;2.22;1.27;;;;;;;;;;21010568;28;20036;-64
2023/06/14 17:12:27;;;;;;;2.00;1.23;;;;;;;;;;21009880;28;20447;-65
2023/06/14 17:22:29;;;;;;;1.60;1.33;;;;;;;;;;21009172;28;20409;-65
2023/06/14 17:32:30;;;;;;;2.10;1.40;;;;;;;;;;21009104;28;20049;-65
2023/06/14 17:42:31;;;;;;;2.22;1.35;;;;;;;;;;21007298;28;20072;-65
2023/06/14 17:52:32;;;;;;;3.53;1.55;;;;;;;;;;21006935;28;20070;-65
2023/06/14 18:02:33;;;;;;;1.65;1.13;;;;;;;;;;21006485;28;20375;-66
2023/06/14 18:12:34;;;;;;;1.67;1.23;;;;;;;;;;21006003;28;20055;-65
2023/06/14 18:22:35;;;;;;;2.90;1.30;;;;;;;;;;21005196;28;20053;-65
2023/06/14 18:32:37;;;;;;;3.83;1.60;;;;;;;;;;21003175;28;20056;-64
2023/06/14 18:42:38;;;;;;;2.67;1.88;;;;;;;;;;21003028;28;20045;-64
2023/06/14 18:52:39;;;;;;;3.20;1.70;;;;;;;;;;21001622;28;20040;-65
2023/06/14 19:02:40;;;;;;;3.65;1.50;;;;;;;;;;21001664;28;20489;-65
2023/06/14 19:12:41;;;;;;;3.28;1.67;;;;;;;;;;20999597;28;20041;-65
2023/06/14 19:22:42;;;;;;;3.47;2.00;;;;;;;;;;20999624;28;20048;-65
2023/06/14 19:32:44;;;;;;;2.03;1.70;;;;;;;;;;20997956;28;20063;-65
2023/06/14 19:42:45;;;;;;;3.30;1.80;;;;;;;;;;20996543;28;20045;-64
2023/06/14 19:52:46;;;;;;;4.13;2.40;;;;;;;;;;20996315;28;20040;-64
2023/06/14 20:02:47;;;;;;;5.38;2.50;;;;;;;;;;20997400;28;20513;-64
2023/06/14 20:12:49;;;;;;;3.75;2.47;;;;;;;;;;20996783;28;20048;-65
2023/06/14 20:22:50;;;;;;;5.78;3.08;;;;;;;;;;20995146;28;20044;-65
2023/06/14 20:32:51;;;;;;;4.88;3.00;;;;;;;;;;20994152;28;20057;-65
2023/06/14 20:42:57;;;;;;;4.78;2.90;;;;;;;;;;20994871;28;20047;-65
2023/06/14 20:52:58;;;;;;;3.13;2.80;;;;;;;;;;20994202;28;20087;-65
2023/06/14 21:03:02;;;;;;;4.68;2.75;;;;;;;;;;20993699;28;20120;-66
2023/06/14 21:13:03;;;;;;;4.78;3.13;;;;;;;;;;20997950;28;20494;-66
2023/06/14 21:23:05;;;;;;;4.13;2.97;;;;;;;;;;21008550;28;20049;-65
2023/06/14 21:33:06;;;;;;;5.50;3.53;;;;;;;;;;21007971;28;20056;-67
2023/06/14 21:43:07;;;;;;;7.53;3.53;;;;;;;;;;21007750;28;20044;-65
2023/06/14 21:53:08;;;;;;;5.80;3.42;;;;;;;;;;21007353;28;20057;-65
2023/06/14 22:03:10;;;;;;;4.18;3.13;;;;;;;;;;21006647;28;20551;-65
2023/06/14 22:13:11;;;;;;;7.03;4.25;;;;;;;;;;21006116;28;20500;-65
2023/06/14 22:23:14;;;;;;;6.07;3.40;;;;;;;;;;21005290;28;20393;-65
2023/06/14 22:33:16;;;;;;;3.95;2.88;;;;;;;;;;21006201;28;20060;-65
2023/06/14 22:43:17;;;;;;;4.13;2.88;;;;;;;;;;21003795;28;20120;-66
2023/06/14 22:53:18;;;;;;;6.03;3.03;;;;;;;;;;21003005;28;20451;-64
2023/06/14 23:03:19;;;;;;;4.30;2.83;;;;;;;;;;21002144;28;20486;-65
2023/06/14 23:13:21;;;;;;;3.90;2.78;;;;;;;;;;21001535;28;20044;-66
2023/06/14 23:23:23;;;;;;;4.22;2.65;;;;;;;;;;21000425;28;20483;-65
2023/06/14 23:33:24;;;;;;;4.45;3.38;;;;;;;;;;20998378;28;20056;-65
2023/06/14 23:43:26;;;;;;;6.47;2.80;;;;;;;;;;20998686;28;20512;-65
2023/06/14 23:53:27;;;;;;;4.05;2.88;;;;;;;;;;20998208;28;20515;-64
